createdAt,value
2018-04-11T00:02:14.652Z,1.87
2018-04-11T00:04:41.586Z,1.53
2018-04-11T00:07:08.495Z,1.40
2018-04-11T00:09:35.351Z,1.10
2018-04-11T00:12:02.283Z,1.27
2018-04-11T00:14:30.022Z,1.10
2018-04-11T00:16:57.634Z,1.20
2018-04-11T00:19:24.542Z,1.10
2018-04-11T00:21:52.195Z,1.20
2018-04-11T00:24:19.804Z,1.10
2018-04-11T00:26:46.771Z,1.00
2018-04-11T00:29:13.658Z,1.10
2018-04-11T00:31:41.293Z,1.27
2018-04-11T00:34:08.969Z,1.30
2018-04-11T00:36:36.608Z,1.10
2018-04-11T00:39:03.686Z,0.90
2018-04-11T00:41:31.354Z,1.00
2018-04-11T00:43:58.988Z,1.10
2018-04-11T00:46:25.987Z,1.23
2018-04-11T00:48:52.928Z,1.20
2018-04-11T00:51:20.593Z,1.30
2018-04-11T00:53:47.504Z,1.17
2018-04-11T00:56:14.392Z,1.17
2018-04-11T00:58:41.345Z,1.00
2018-04-11T01:01:08.299Z,1.20
2018-04-11T01:03:35.205Z,1.20
2018-04-11T01:06:02.865Z,1.30
2018-04-11T01:08:30.448Z,1.10
2018-04-11T01:10:57.406Z,1.20
2018-04-11T01:13:24.322Z,1.13
2018-04-11T01:15:52.021Z,1.23
2018-04-11T01:18:18.962Z,1.37
2018-04-11T01:20:45.919Z,1.20
2018-04-11T01:23:12.886Z,1.10
2018-04-11T01:25:39.839Z,1.40
2018-04-11T01:28:07.542Z,1.00
2018-04-11T01:30:36.364Z,1.20
2018-04-11T01:33:03.338Z,1.20
2018-04-11T01:35:30.399Z,1.33
2018-04-11T01:37:57.366Z,1.30
2018-04-11T01:40:24.284Z,1.10
2018-04-11T01:42:51.260Z,1.17
2018-04-11T01:45:18.186Z,1.10
2018-04-11T01:47:45.075Z,1.03
2018-04-11T01:50:12.695Z,1.30
2018-04-11T01:52:39.672Z,1.00
2018-04-11T01:55:07.291Z,1.10
2018-04-11T01:57:34.194Z,1.20
2018-04-11T02:00:01.805Z,1.17
2018-04-11T02:02:28.711Z,1.10
2018-04-11T02:04:56.358Z,1.10
2018-04-11T02:07:23.992Z,1.10
2018-04-11T02:09:50.951Z,0.90
2018-04-11T02:12:19.485Z,1.10
2018-04-11T02:14:46.324Z,1.10
2018-04-11T02:17:13.291Z,1.10
2018-04-11T02:19:40.259Z,1.40
2018-04-11T02:22:07.124Z,1.27
2018-04-11T02:24:34.036Z,1.20
2018-04-11T02:27:00.883Z,1.50
2018-04-11T02:29:29.329Z,1.90
2018-04-11T02:31:56.243Z,1.83
2018-04-11T02:34:23.238Z,1.10
2018-04-11T02:36:50.068Z,1.27
2018-04-11T02:39:17.062Z,1.30
2018-04-11T02:41:44.000Z,1.10
2018-04-11T02:44:10.921Z,1.23
2018-04-11T02:46:37.888Z,0.90
2018-04-11T02:49:04.795Z,1.30
2018-04-11T02:51:32.453Z,1.30
2018-04-11T02:54:00.090Z,1.53
2018-04-11T02:56:26.939Z,1.57
2018-04-11T02:58:53.828Z,1.13
2018-04-11T03:01:20.783Z,1.40
2018-04-11T03:03:47.698Z,1.47
2018-04-11T03:06:15.386Z,1.73
2018-04-11T03:08:42.380Z,1.63
2018-04-11T03:11:09.329Z,1.80
2018-04-11T03:13:36.252Z,1.30
2018-04-11T03:16:03.257Z,1.30
2018-04-11T03:18:30.940Z,1.13
2018-04-11T03:20:57.794Z,1.10
2018-04-11T03:23:24.838Z,1.03
2018-04-11T03:25:51.707Z,1.27
2018-04-11T03:28:18.629Z,1.20
2018-04-11T03:30:45.647Z,1.40
2018-04-11T03:33:13.293Z,1.30
2018-04-11T03:35:40.208Z,1.00
2018-04-11T03:38:07.137Z,1.27
2018-04-11T03:40:34.996Z,1.10
2018-04-11T03:43:01.813Z,1.10
2018-04-11T03:45:29.449Z,1.07
2018-04-11T03:47:56.311Z,1.00
2018-04-11T03:50:23.268Z,0.97
2018-04-11T03:52:50.908Z,1.00
2018-04-11T03:55:17.815Z,0.80
2018-04-11T03:57:45.527Z,0.87
2018-04-11T04:00:12.417Z,0.80
2018-04-11T04:02:39.312Z,1.03
2018-04-11T04:05:06.246Z,0.83
2018-04-11T04:07:33.190Z,1.00
2018-04-11T04:10:00.126Z,1.17
2018-04-11T04:12:27.080Z,1.00
2018-04-11T04:15:05.816Z,1.00
2018-04-11T04:17:45.087Z,3.67
2018-04-11T04:20:34.960Z,4.93
2018-04-11T04:23:01.886Z,3.73
2018-04-11T04:25:29.805Z,4.03
2018-04-11T04:27:56.732Z,4.00
2018-04-11T04:30:24.422Z,5.07
2018-04-11T04:32:51.511Z,5.40
2018-04-11T04:35:18.490Z,5.00
2018-04-11T04:37:46.186Z,6.43
2018-04-11T04:40:13.137Z,6.67
2018-04-11T04:42:40.038Z,8.03
2018-04-11T04:45:06.952Z,6.20
2018-04-11T04:47:33.880Z,6.00
2018-04-11T04:50:00.782Z,5.47
2018-04-11T04:52:27.631Z,4.03
2018-04-11T04:54:55.295Z,4.50
2018-04-11T04:57:22.967Z,4.30
2018-04-11T04:59:50.649Z,5.10
2018-04-11T05:02:17.711Z,5.13
2018-04-11T05:04:44.632Z,3.77
2018-04-11T05:07:12.314Z,3.77
2018-04-11T05:09:39.321Z,4.83
2018-04-11T05:12:06.353Z,4.87
2018-04-11T05:14:51.293Z,4.73
2018-04-11T05:17:18.219Z,6.30
2018-04-11T05:19:45.096Z,4.13
2018-04-11T05:22:12.090Z,4.07
2018-04-11T05:24:39.816Z,4.40
2018-04-11T05:27:06.739Z,4.20
2018-04-11T05:29:33.677Z,4.30
2018-04-11T05:32:00.658Z,4.33
2018-04-11T05:34:27.594Z,6.40
2018-04-11T05:36:54.434Z,7.10
2018-04-11T05:39:21.359Z,6.53
2018-04-11T05:41:48.406Z,6.40
2018-04-11T05:44:15.295Z,5.40
2018-04-11T05:46:42.146Z,5.50
2018-04-11T05:49:09.023Z,5.60
2018-04-11T05:51:36.697Z,5.90
2018-04-11T05:54:04.343Z,5.60
2018-04-11T05:56:31.392Z,5.43
2018-04-11T05:58:58.327Z,5.20
2018-04-11T06:01:25.302Z,8.70
2018-04-11T06:03:52.919Z,11.93
2018-04-11T06:06:19.870Z,11.83
2018-04-11T06:08:46.810Z,9.53
2018-04-11T06:11:13.649Z,7.67
2018-04-11T06:13:40.548Z,6.97
2018-04-11T06:16:08.182Z,6.43
2018-04-11T06:18:35.102Z,6.00
2018-04-11T06:21:02.098Z,6.53
2018-04-11T06:23:29.051Z,6.40
2018-04-11T06:25:56.705Z,6.27
2018-04-11T06:28:24.421Z,6.00
2018-04-11T06:30:51.311Z,5.70
2018-04-11T06:33:18.272Z,5.20
2018-04-11T06:35:45.982Z,5.10
2018-04-11T06:38:12.908Z,4.87
2018-04-11T06:40:39.769Z,4.43
2018-04-11T06:43:06.766Z,5.40
2018-04-11T06:45:34.552Z,4.93
2018-04-11T06:48:02.194Z,4.40
2018-04-11T06:50:29.221Z,3.63
2018-04-11T06:52:56.088Z,3.50
2018-04-11T06:55:22.969Z,3.70
2018-04-11T06:57:49.964Z,3.80
2018-04-11T07:00:17.002Z,3.30
2018-04-11T07:02:44.814Z,3.23
2018-04-11T07:05:12.474Z,3.97
2018-04-11T07:07:40.116Z,4.00
2018-04-11T07:10:06.979Z,5.50
2018-04-11T07:12:34.573Z,6.43
2018-04-11T07:15:12.928Z,8.37
2018-04-11T07:17:39.837Z,9.50
2018-04-11T07:20:06.843Z,8.93
2018-04-11T07:22:34.551Z,8.20
2018-04-11T07:25:02.606Z,13.83
2018-04-11T07:27:30.237Z,16.37
2018-04-11T07:29:57.185Z,16.90
2018-04-11T07:32:24.119Z,15.57
2018-04-11T07:34:51.040Z,13.73
2018-04-11T07:37:18.001Z,12.87
2018-04-11T07:39:44.920Z,12.47
2018-04-11T07:42:11.927Z,13.77
2018-04-11T07:44:38.914Z,15.67
2018-04-11T07:47:05.919Z,14.33
2018-04-11T07:49:32.811Z,14.17
2018-04-11T07:51:59.782Z,13.53
2018-04-11T07:54:27.506Z,16.07
2018-04-11T07:56:55.306Z,16.73
2018-04-11T07:59:22.283Z,15.60
2018-04-11T08:01:49.260Z,13.10
2018-04-11T08:04:16.921Z,12.93
2018-04-11T08:06:44.565Z,19.40
2018-04-11T08:09:11.480Z,31.90
2018-04-11T08:11:38.353Z,38.83
2018-04-11T08:14:05.378Z,34.37
2018-04-11T08:16:32.389Z,109.67
2018-04-11T08:18:59.405Z,308.07
2018-04-11T08:21:26.264Z,75.93
2018-04-11T08:23:53.713Z,34.37
2018-04-11T08:26:20.853Z,25.47
2018-04-11T08:28:47.828Z,39.90
2018-04-11T08:31:15.461Z,56.87
2018-04-11T08:33:42.412Z,69.17
2018-04-11T08:36:09.346Z,89.20
2018-04-11T08:38:36.246Z,73.73
2018-04-11T08:41:03.214Z,82.10
2018-04-11T08:43:30.100Z,67.73
2018-04-11T08:45:57.074Z,59.90
2018-04-11T08:48:24.708Z,54.40
2018-04-11T08:50:51.568Z,45.10
2018-04-11T08:53:19.285Z,35.67
2018-04-11T08:55:46.161Z,36.07
2018-04-11T08:58:13.278Z,39.40
2018-04-11T09:00:40.270Z,62.13
2018-04-11T09:03:07.129Z,46.70
2018-04-11T09:05:34.811Z,27.20
2018-04-11T09:08:01.831Z,14.23
2018-04-11T09:10:29.481Z,9.27
2018-04-11T09:12:56.420Z,5.83
2018-04-11T09:15:37.019Z,5.07
2018-04-11T09:18:04.783Z,4.50
2018-04-11T09:20:32.635Z,3.60
2018-04-11T09:22:59.653Z,3.03
2018-04-11T09:25:26.629Z,3.43
2018-04-11T09:27:53.571Z,3.20
2018-04-11T09:30:20.517Z,2.70
2018-04-11T09:32:47.425Z,2.17
2018-04-11T09:35:14.372Z,2.50
2018-04-11T09:37:41.326Z,2.83
2018-04-11T09:40:08.283Z,2.20
2018-04-11T09:42:35.212Z,2.40
2018-04-11T09:45:02.192Z,2.50
2018-04-11T09:47:29.145Z,5.07
2018-04-11T09:49:56.085Z,6.57
2018-04-11T09:52:23.059Z,10.63
2018-04-11T09:54:49.912Z,13.43
2018-04-11T09:57:17.544Z,30.73
2018-04-11T09:59:44.493Z,19.33
2018-04-11T10:02:17.303Z,11.20
2018-04-11T10:04:44.967Z,6.70
2018-04-11T10:07:12.716Z,4.80
2018-04-11T10:09:39.673Z,4.70
2018-04-11T10:12:06.640Z,3.00
2018-04-11T10:14:45.632Z,3.60
2018-04-11T10:17:12.512Z,3.17
2018-04-11T10:19:40.257Z,2.30
2018-04-11T10:22:07.232Z,2.33
2018-04-11T10:24:34.899Z,2.20
2018-04-11T10:27:02.607Z,2.50
2018-04-11T10:29:30.601Z,2.10
2018-04-11T10:31:57.481Z,2.87
2018-04-11T10:34:24.348Z,2.73
2018-04-11T10:36:51.357Z,2.33
2018-04-11T10:39:19.115Z,1.90
2018-04-11T10:41:46.103Z,2.50
2018-04-11T10:44:13.058Z,2.47
2018-04-11T10:46:40.021Z,2.20
2018-04-11T10:49:06.863Z,2.30
2018-04-11T10:51:33.788Z,2.43
2018-04-11T10:54:00.655Z,2.77
2018-04-11T10:56:27.545Z,2.20
2018-04-11T10:58:55.319Z,1.97
2018-04-11T11:01:22.956Z,2.10
2018-04-11T11:03:49.867Z,2.13
2018-04-11T11:06:16.819Z,1.90
2018-04-11T11:08:43.814Z,2.10
2018-04-11T11:11:10.747Z,1.93
2018-04-11T11:13:37.607Z,2.07
2018-04-11T11:16:05.544Z,2.07
2018-04-11T11:18:34.857Z,2.10
2018-04-11T11:21:01.907Z,1.60
2018-04-11T11:23:28.834Z,2.50
2018-04-11T11:25:56.638Z,2.20
2018-04-11T11:28:23.571Z,2.40
2018-04-11T11:30:50.506Z,2.80
2018-04-11T11:33:17.389Z,2.70
2018-04-11T11:35:45.049Z,2.70
2018-04-11T11:38:12.699Z,3.10
2018-04-11T11:40:40.372Z,2.83
2018-04-11T11:43:07.319Z,3.00
2018-04-11T11:45:34.507Z,2.50
2018-04-11T11:48:01.524Z,2.60
2018-04-11T11:50:29.355Z,2.47
2018-04-11T11:52:56.240Z,1.90
2018-04-11T11:55:23.867Z,2.00
2018-04-11T11:57:50.756Z,2.10
2018-04-11T12:00:17.649Z,1.77
2018-04-11T12:02:44.567Z,1.80
2018-04-11T12:05:11.611Z,2.00
2018-04-11T12:07:38.534Z,1.60
2018-04-11T12:10:06.381Z,1.87
2018-04-11T12:12:33.273Z,2.67
2018-04-11T12:15:19.106Z,3.07
2018-04-11T12:17:46.065Z,3.77
2018-04-11T12:20:13.143Z,4.53
2018-04-11T12:22:40.796Z,3.20
2018-04-11T12:25:07.739Z,2.70
2018-04-11T12:27:35.408Z,2.17
2018-04-11T12:30:03.174Z,1.80
2018-04-11T12:32:30.070Z,1.60
2018-04-11T12:34:57.004Z,1.60
2018-04-11T12:37:24.008Z,2.07
2018-04-11T12:39:50.956Z,1.50
2018-04-11T12:42:17.835Z,1.80
2018-04-11T12:44:44.734Z,1.50
2018-04-11T12:47:11.700Z,1.60
2018-04-11T12:49:38.647Z,1.70
2018-04-11T12:52:05.543Z,1.53
2018-04-11T12:54:32.523Z,1.50
2018-04-11T12:56:59.430Z,1.90
2018-04-11T12:59:26.341Z,2.20
2018-04-11T13:01:53.224Z,2.17
2018-04-11T13:04:20.910Z,2.20
2018-04-11T13:06:47.871Z,1.70
2018-04-11T13:09:14.789Z,2.00
2018-04-11T13:11:41.626Z,2.13
2018-04-11T13:14:08.579Z,2.10
2018-04-11T13:16:35.477Z,2.07
2018-04-11T13:19:03.286Z,1.97
2018-04-11T13:21:30.236Z,7.53
2018-04-11T13:23:57.177Z,6.97
2018-04-11T13:26:24.196Z,4.57
2018-04-11T13:28:51.915Z,3.70
2018-04-11T13:31:18.934Z,2.97
2018-04-11T13:33:45.924Z,4.50
2018-04-11T13:36:12.870Z,4.23
2018-04-11T13:38:39.751Z,5.80
2018-04-11T13:41:07.393Z,5.33
2018-04-11T13:43:34.393Z,5.43
2018-04-11T13:46:01.379Z,5.27
2018-04-11T13:48:28.343Z,6.20
2018-04-11T13:50:55.306Z,8.10
2018-04-11T13:53:23.039Z,6.33
2018-04-11T13:55:50.047Z,5.87
2018-04-11T13:58:16.955Z,5.67
2018-04-11T14:00:43.855Z,6.10
2018-04-11T14:03:10.830Z,6.20
2018-04-11T14:05:37.822Z,6.77
2018-04-11T14:08:05.408Z,6.20
2018-04-11T14:10:32.539Z,8.57
2018-04-11T14:12:59.486Z,7.17
2018-04-11T14:15:56.647Z,4.53
2018-04-11T14:18:23.527Z,4.80
2018-04-11T14:20:50.462Z,4.67
2018-04-11T14:23:17.378Z,3.73
2018-04-11T14:25:44.349Z,3.67
2018-04-11T14:28:11.323Z,3.30
2018-04-11T14:30:38.408Z,2.80
2018-04-11T14:33:06.179Z,3.30
2018-04-11T14:35:33.863Z,3.33
2018-04-11T14:38:00.899Z,2.80
2018-04-11T14:40:27.876Z,2.97
2018-04-11T14:42:54.945Z,3.23
2018-04-11T14:45:22.691Z,3.27
2018-04-11T14:47:49.849Z,2.87
2018-04-11T14:50:16.851Z,3.20
2018-04-11T14:52:44.548Z,3.33
2018-04-11T14:55:11.554Z,3.63
2018-04-11T14:57:38.563Z,3.47
2018-04-11T15:00:05.503Z,3.23
2018-04-11T15:02:32.459Z,3.07
2018-04-11T15:04:59.430Z,3.00
2018-04-11T15:07:26.494Z,3.90
2018-04-11T15:09:53.521Z,3.60
2018-04-11T15:12:20.488Z,3.37
2018-04-11T15:15:04.184Z,3.10
2018-04-11T15:17:31.337Z,2.90
2018-04-11T15:19:58.527Z,4.00
2018-04-11T15:22:25.665Z,2.60
2018-04-11T15:24:52.961Z,2.20
2018-04-11T15:27:20.920Z,1.90
2018-04-11T15:29:48.897Z,2.30
2018-04-11T15:32:16.842Z,2.00
2018-04-11T15:34:44.072Z,2.50
2018-04-11T15:37:12.010Z,2.90
2018-04-11T15:39:39.124Z,4.23
2018-04-11T15:42:06.354Z,4.30
2018-04-11T15:44:33.475Z,4.30
2018-04-11T15:47:00.663Z,3.30
2018-04-11T15:49:27.902Z,4.93
2018-04-11T15:51:55.099Z,4.13
2018-04-11T15:54:23.083Z,3.50
2018-04-11T15:56:51.001Z,3.37
2018-04-11T15:59:18.267Z,2.30
2018-04-11T16:01:45.462Z,2.27
2018-04-11T16:04:13.436Z,2.00
2018-04-11T16:06:41.417Z,2.10
2018-04-11T16:09:08.696Z,2.00
2018-04-11T16:11:35.876Z,2.40
2018-04-11T16:14:03.030Z,3.80
2018-04-11T16:17:02.295Z,3.10
2018-04-11T16:19:29.559Z,4.87
2018-04-11T16:21:56.885Z,4.37
2018-04-11T16:24:24.121Z,5.00
2018-04-11T16:26:52.163Z,4.93
2018-04-11T16:29:19.307Z,5.30
2018-04-11T16:31:46.565Z,7.70
2018-04-11T16:34:13.839Z,7.93
2018-04-11T16:36:41.064Z,6.43
2018-04-11T16:39:08.273Z,4.90
2018-04-11T16:41:37.004Z,3.60
2018-04-11T16:44:04.271Z,3.23
2018-04-11T16:46:31.510Z,2.80
2018-04-11T16:48:58.674Z,2.50
2018-04-11T16:51:25.806Z,2.53
2018-04-11T16:53:53.081Z,5.00
2018-04-11T16:56:20.264Z,4.23
2018-04-11T16:58:48.251Z,3.90
2018-04-11T17:01:16.284Z,5.27
2018-04-11T17:03:43.557Z,5.70
2018-04-11T17:06:10.785Z,6.80
2018-04-11T17:08:38.014Z,5.07
2018-04-11T17:11:05.367Z,13.17
2018-04-11T17:13:32.629Z,20.60
2018-04-11T17:19:01.479Z,16.60
2018-04-11T17:21:56.513Z,15.23
2018-04-11T17:42:16.202Z,11.00
2018-04-11T18:04:12.496Z,5.70
2018-04-11T18:13:12.830Z,9.60
2018-04-11T18:25:16.837Z,17.07
2018-04-11T18:27:44.137Z,20.10
2018-04-11T18:30:11.523Z,19.10
2018-04-11T18:32:38.789Z,21.77
2018-04-11T18:35:06.073Z,25.60
2018-04-11T18:37:34.048Z,22.40
2018-04-11T18:40:27.589Z,20.10
2018-04-11T18:42:54.900Z,18.37
2018-04-11T18:45:22.237Z,22.07
2018-04-11T18:47:50.156Z,20.40
2018-04-11T18:50:18.352Z,18.77
2018-04-11T18:52:45.682Z,17.57
2018-04-11T18:55:13.007Z,15.10
2018-04-11T18:57:41.060Z,12.23
2018-04-11T19:00:09.035Z,11.13
2018-04-11T19:02:37.042Z,12.83
2018-04-11T19:05:04.264Z,8.50
2018-04-11T19:07:32.288Z,5.60
2018-04-11T19:09:59.493Z,6.03
2018-04-11T19:19:02.044Z,7.03
2018-04-11T19:21:29.444Z,6.60
2018-04-11T19:23:56.761Z,8.33
2018-04-11T19:26:24.138Z,9.00
2018-04-11T19:37:51.557Z,5.47
2018-04-11T19:40:18.844Z,6.20
2018-04-11T19:45:44.758Z,10.73
2018-04-11T19:48:12.072Z,10.83
2018-04-11T19:50:40.522Z,11.23
2018-04-11T19:53:07.761Z,12.17
2018-04-11T19:55:35.426Z,7.90
2018-04-11T19:58:03.085Z,6.87
2018-04-11T20:00:30.840Z,6.03
2018-04-11T20:02:59.152Z,6.97
2018-04-11T20:05:26.851Z,8.77
2018-04-11T20:07:56.507Z,8.23
2018-04-11T20:10:48.944Z,7.90
2018-04-11T20:13:16.682Z,8.23
2018-04-11T20:18:57.344Z,6.27
2018-04-11T20:21:28.271Z,8.97
2018-04-11T20:23:55.560Z,7.60
2018-04-11T20:29:25.014Z,4.50
2018-04-11T20:59:32.720Z,49.97
2018-04-11T21:28:09.941Z,12.53
2018-04-11T21:30:37.403Z,12.83
2018-04-11T21:33:04.455Z,11.33
2018-04-11T21:35:34.022Z,9.53
2018-04-11T21:38:01.934Z,7.93
2018-04-11T21:40:29.712Z,9.00
2018-04-11T21:42:56.747Z,6.37
2018-04-11T21:45:24.407Z,5.97
2018-04-11T21:47:51.349Z,5.47
2018-04-11T21:50:18.409Z,4.20
2018-04-11T21:52:46.281Z,4.10
2018-04-11T21:55:13.321Z,4.50
2018-04-11T21:57:40.367Z,5.10
2018-04-11T22:00:07.362Z,4.70
2018-04-11T22:02:34.372Z,4.20
2018-04-11T22:05:01.320Z,4.50
2018-04-11T22:07:28.369Z,4.13
2018-04-11T22:09:55.411Z,4.63
2018-04-11T22:12:22.458Z,4.83
2018-04-11T22:14:49.410Z,6.43
2018-04-11T22:17:16.456Z,6.10
2018-04-11T22:19:43.510Z,6.73
2018-04-11T22:22:10.567Z,9.27
2018-04-11T22:24:37.524Z,7.70
2018-04-11T22:27:04.459Z,7.57
2018-04-11T22:29:31.685Z,6.90
2018-04-11T22:31:58.638Z,7.73
2018-04-11T22:34:25.568Z,6.50
2018-04-11T22:36:52.525Z,5.97
2018-04-11T22:39:19.382Z,5.87
2018-04-11T22:41:46.412Z,5.63
2018-04-11T22:44:13.249Z,5.37
2018-04-11T22:46:40.195Z,4.43
2018-04-11T22:49:07.043Z,4.37
2018-04-11T22:51:33.941Z,4.80
2018-04-11T22:54:00.819Z,4.03
2018-04-11T22:56:27.758Z,4.87
2018-04-11T22:58:55.400Z,3.93
2018-04-11T23:01:23.051Z,4.30
2018-04-11T23:03:50.022Z,4.30
2018-04-11T23:06:16.997Z,4.23
2018-04-11T23:08:43.850Z,4.40
2018-04-11T23:11:10.851Z,4.43
2018-04-11T23:13:37.891Z,3.63
2018-04-11T23:16:04.943Z,4.23
2018-04-11T23:18:31.962Z,3.57
2018-04-11T23:20:58.861Z,4.00
2018-04-11T23:23:26.448Z,4.50
2018-04-11T23:25:53.467Z,4.60
2018-04-11T23:28:21.148Z,4.30
2018-04-11T23:30:48.126Z,4.57
2018-04-11T23:33:15.050Z,4.13
2018-04-11T23:35:41.952Z,3.80
2018-04-11T23:38:08.886Z,4.70
2018-04-11T23:40:35.874Z,4.03
2018-04-11T23:43:03.513Z,3.53
2018-04-11T23:45:30.496Z,3.33
2018-04-11T23:47:57.349Z,4.40
2018-04-11T23:50:24.238Z,4.33
2018-04-11T23:52:51.083Z,3.87
2018-04-11T23:55:17.980Z,3.90
2018-04-11T23:57:44.926Z,4.60
